Timing By Zornick Race Results


Race Course: r2rhalf
Race Distance: 13.1Miles
AGE Group:
Gender:  

Course RankDateName
Click to see runners results
AgeGenderCityStateTimePace
  1  11/11/2017  Matt Krier  35  M  Edmonds  WA  01:22:11  0:06:16
  2  11/11/2017  Addison Smee  14  M      01:26:19  0:06:35
  3  11/11/2017  Tom Kahl  40  M  Portland  OR  01:29:48  0:06:51
  4  11/11/2017  Kyle Danielle  25  M      01:35:16  0:07:16
  5  11/11/2017  Cherie Sanada  36  F      01:37:22  0:07:26
  6  11/11/2017  Brian Graham  40  M  Vancouver  WA  01:37:41  0:07:27
  7  11/11/2017  Michael Grant  41  M  Portland  OR  01:38:28  0:07:31
  8  11/11/2017  Stephen Flach  44  M  Vancouver  WA  01:43:53  0:07:56
  9  11/11/2017  John Bruckner  54  M  Banks  OR  01:43:56  0:07:56
  10  11/11/2017  Heaqther Mcfadden  44  F      01:44:07  0:07:57
  11  11/11/2017  Unidentified Bib240  0  N      01:46:04  0:08:06
  12  11/11/2017  Kati Hengel  25  F  Portland  OR  01:46:17  0:08:07
  13  11/11/2017  Lon Embley  31  M  Anchorage  AK  01:47:04  0:08:10
  14  11/11/2017  Barret Seifer  47  M  Federal Way  WA  01:47:38  0:08:13
  15  11/11/2017  Brandon Trinidad  36  M  Ridgefield  WA  01:51:38  0:08:31
  16  11/11/2017  Cecilia Mains  32  F  Vancouver  WA  01:55:15  0:08:48
  17  11/11/2017  John Bennett  54  M  Surbiton  SU  01:56:20  0:08:53
  18  11/11/2017  Julia Khvasechko  43  F  Portland  OR  01:58:01  0:09:01
  19  11/11/2017  Shane Garling  45  M  Portland  OR  01:58:06  0:09:01
  20  11/11/2017  Annette Harris  57  F  Portland  OR  02:00:46  0:09:13
  21  11/11/2017  John Rudi  55  M  Vancouver  WA  02:01:26  0:09:16
  22  11/11/2017  Alma Perea  0  F      02:01:48  0:09:18
  23  11/11/2017  Kim Vu  51  F      02:04:20  0:09:29
  24  11/11/2017  Praveen Sharabu  51  M  Portland  OR  02:06:47  0:09:41
  25  11/11/2017  Mary Courtright  33  F  Aloha  OR  02:07:28  0:09:44
  26  11/11/2017  Ben Gregory  28  M  Portland  OR  02:10:16  0:09:57
  27  11/11/2017  Keith Bloss  61  M  Vancouver  CA  02:10:46  0:09:59
  28  11/11/2017  Angela Niger  28  F  Beaverton  OR  02:12:07  0:10:05
  29  11/11/2017  Papajay Kitchin  69  M  Vancouver  WA  02:13:44  0:10:12
  30  11/11/2017  Steven Sandor  76  M  Vancouver  WA  02:17:23  0:10:29
  31  11/11/2017  Allison Lewey  25  F  Aloha  OR  02:21:36  0:10:49
  32  11/11/2017  Sandra Rodriguez  49  F  Oak Harbor  WA  02:26:31  0:11:11
  33  11/11/2017  David Trotter  55  M      02:31:12  0:11:33
  34  11/11/2017  Allen Sandstrom  79  M  Beaverton  OR  02:50:24  0:13:00
  35  11/11/2017  Melinda Hough  38  F  Tumwater  WA  02:54:50  0:13:21
  
Total Finishers 35

Click Here for a complete race list


If you have any suggestion or comments on improving this Page or if you want your name removed from the database, Please Email me at rzornick@attbi.com